Pine Ridge, Idaho
Current Conditions -  °F | °C
As of 3:51 PM on Saturday 20 Dec 2014 (Local Time) from KMYL Reporting Station
Light Snow Light Snow  
Wind Chill: 27°   Ceiling: 2000
Heat Index: 33°   Visibility: 4mi
Dew Point: 31°   Wind: 7mph
Humidity: 92%   Direction: 150°SSE
Pressure: 29.86"   Gusts: NA
Location:  44.9328°N, 116.572°W
Report Text: KMYL 202251Z AUTO 15006KT 4SM -SN BR FEW009 FEW014 OVC020 01/M01 A2986 RMK AO2 UPE2157SNB2157 SLP131 P0002 T00061006
Loading
Personal Weather Stations






























Interactive Weather Map New forecast layout! Learn more

10-Day Weather Forecast

Advertisements
Track Severe Weather on mobile